Time;durP1;ratioP1;P1;durP2;ratioP2;P2;SDS_P1;SDS_P2;PMS_P1;PMS_P2;Temp;Humidity;BMP_temperature;BMP_pressure;BME280_temperature;BME280_humidity;BME280_pressure;Samples;Min_cycle;Max_cycle;Signal;HPM_P1;HPM_P2
2022/01/29 00:00:40;;;;;;;;;;;;;;;14.63;58.19;102431.66;1015258;29;1608;-61
2022/01/29 00:01:30;;;;;;;;;;;;;;;14.65;57.65;102428.91;1015341;29;1627;-61
2022/01/29 00:02:22;;;;;;;;;;;;;;;14.65;58.09;102424.41;1015561;29;1680;-61
2022/01/29 00:03:12;;;;;;;;;;;;;;;14.64;57.62;102438.78;1018235;29;638;-61
2022/01/29 00:04:02;;;;;;;;;;;;;;;14.64;57.63;102427.16;1017611;29;662;-62
2022/01/29 00:04:53;;;;;;;;;;;;;;;14.62;57.20;102424.56;1017567;29;639;-62
2022/01/29 00:05:43;;;;;;;;;;;;;;;14.62;57.72;102424.56;1017588;29;878;-61
2022/01/29 00:06:34;;;;;;;;;;;;;;;14.62;57.56;102424.56;1017635;29;718;-62
2022/01/29 00:07:24;;;;;;;;;;;;;;;14.61;58.33;102433.56;1013733;29;852;-62
2022/01/29 00:08:15;;;;;;;;;;;;;;;14.62;57.54;102437.13;1013670;29;678;-62
2022/01/29 00:09:08;;;;;;;;;;;;;;;14.60;57.85;102421.09;1014074;29;694;-62
2022/01/29 00:10:03;;;;;;;;;;;;;;;14.61;57.77;102430.03;1014111;29;867;-61
2022/01/29 00:10:59;;;;;;;;;;;;;;;14.60;57.72;102429.16;1013738;29;718;-62
2022/01/29 00:11:50;;;;;;;;;;;;;;;14.61;57.97;102432.69;1013082;29;976;-62
2022/01/29 00:12:40;;;;;;;;;;;;;;;14.61;57.83;102427.34;1013183;29;683;-62
2022/01/29 00:13:31;;;;;;;;;;;;;;;14.61;58.30;102432.69;1013145;29;1001;-62
2022/01/29 00:14:21;;;;;;;;;;;;;;;14.59;58.26;102438.16;1013107;29;779;-62
2022/01/29 00:15:12;;;;;;;;;;;;;;;14.59;58.24;102432.78;1012991;29;655;-61
2022/01/29 00:16:02;;;;;;;;;;;;;;;14.58;57.59;102423.00;1013113;29;806;-62
2022/01/29 00:16:52;;;;;;;;;;;;;;;14.55;57.71;102421.34;1013119;29;710;-62
2022/01/29 00:17:43;;;;;;;;;;;;;;;14.54;58.08;102411.56;1013458;29;713;-61
2022/01/29 00:18:33;;;;;;;;;;;;;;;14.54;57.89;102418.75;1014167;29;666;-62
2022/01/29 00:19:24;;;;;;;;;;;;;;;14.54;57.71;102408.03;1014282;29;1907;-62
2022/01/29 00:20:14;;;;;;;;;;;;;;;14.55;57.67;102399.03;1013199;29;833;-62
2022/01/29 00:21:04;;;;;;;;;;;;;;;14.55;58.02;102397.22;1013120;29;686;-62
2022/01/29 00:21:56;;;;;;;;;;;;;;;14.55;58.05;102402.56;1013626;29;658;-62
2022/01/29 00:22:47;;;;;;;;;;;;;;;14.57;57.93;102400.69;1013144;29;718;-62
2022/01/29 00:23:37;;;;;;;;;;;;;;;14.57;57.96;102399.81;1013656;29;623;-62
2022/01/29 00:24:27;;;;;;;;;;;;;;;14.56;57.83;102396.25;1013640;29;786;-61
2022/01/29 00:25:18;;;;;;;;;;;;;;;14.55;57.56;102394.53;1013611;29;669;-61
2022/01/29 00:26:10;;;;;;;;;;;;;;;14.55;58.45;102396.34;1013622;29;663;-62
2022/01/29 00:27:03;;;;;;;;;;;;;;;14.55;58.04;102386.47;1012988;29;644;-61
2022/01/29 00:27:54;;;;;;;;;;;;;;;14.55;57.83;102385.63;1013255;29;702;-61
2022/01/29 00:28:44;;;;;;;;;;;;;;;14.55;57.55;102399.91;1013435;29;914;-61
2022/01/29 00:29:37;;;;;;;;;;;;;;;14.54;58.19;102383.88;1013694;29;686;-61
2022/01/29 00:30:37;;;;;;;;;;;;;;;14.54;57.75;102387.44;1014871;29;1632;-60
2022/01/29 00:31:27;;;;;;;;;;;;;;;14.54;57.67;102378.50;1017582;29;713;-61
2022/01/29 00:32:17;;;;;;;;;;;;;;;14.54;57.57;102386.56;1016886;29;2164;-60
2022/01/29 00:33:08;;;;;;;;;;;;;;;14.53;57.78;102382.16;1013896;29;681;-60
2022/01/29 00:33:58;;;;;;;;;;;;;;;14.53;58.81;102387.50;1012818;29;643;-61
2022/01/29 00:34:49;;;;;;;;;;;;;;;14.52;58.39;102383.09;1016930;29;964;-61
2022/01/29 00:35:39;;;;;;;;;;;;;;;14.53;58.78;102382.16;1017603;29;733;-61
2022/01/29 00:36:30;;;;;;;;;;;;;;;14.53;58.35;102387.50;1017627;29;709;-61
2022/01/29 00:37:20;;;;;;;;;;;;;;;14.52;58.32;102381.28;1017547;29;646;-62
2022/01/29 00:38:10;;;;;;;;;;;;;;;14.51;57.56;102384.09;1017511;29;622;-62
2022/01/29 00:39:01;;;;;;;;;;;;;;;14.50;57.93;102382.34;1017467;29;831;-63
2022/01/29 00:39:51;;;;;;;;;;;;;;;14.52;57.79;102380.41;1017525;29;698;-63
2022/01/29 00:40:44;;;;;;;;;;;;;;;14.53;58.25;102371.41;1016623;29;1785;-61
2022/01/29 00:41:34;;;;;;;;;;;;;;;14.53;57.74;102376.78;1017538;29;705;-62
2022/01/29 00:42:25;;;;;;;;;;;;;;;14.54;57.78;102374.03;1018166;29;599;-62
2022/01/29 00:43:17;;;;;;;;;;;;;;;14.52;57.91;102373.25;1017410;29;709;-62
2022/01/29 00:44:07;;;;;;;;;;;;;;;14.52;57.59;102369.69;1017419;29;694;-62
2022/01/29 00:44:58;;;;;;;;;;;;;;;14.51;57.97;102368.81;1017962;29;751;-62
2022/01/29 00:45:48;;;;;;;;;;;;;;;14.49;58.04;102364.53;1016886;29;756;-62
2022/01/29 00:46:41;;;;;;;;;;;;;;;14.50;57.99;102360.91;1018076;29;679;-62
2022/01/29 00:47:31;;;;;;;;;;;;;;;14.50;58.33;102360.91;1016893;29;789;-62
2022/01/29 00:48:22;;;;;;;;;;;;;;;14.52;58.65;102367.00;1018085;29;1403;-62
2022/01/29 00:49:12;;;;;;;;;;;;;;;14.52;57.82;102354.47;1017857;29;795;-62
2022/01/29 00:50:02;;;;;;;;;;;;;;;14.53;58.09;102360.69;1018054;29;595;-62
2022/01/29 00:50:53;;;;;;;;;;;;;;;14.52;58.31;102356.28;1013657;29;1705;-62
2022/01/29 00:51:43;;;;;;;;;;;;;;;14.52;57.75;102353.59;1013380;29;841;-62
2022/01/29 00:52:34;;;;;;;;;;;;;;;14.51;58.08;102352.72;1017397;29;1951;-62
2022/01/29 00:53:24;;;;;;;;;;;;;;;14.51;57.87;102350.03;1017599;29;859;-62
2022/01/29 00:54:14;;;;;;;;;;;;;;;14.50;57.63;102347.47;1017588;29;713;-62
2022/01/29 00:55:05;;;;;;;;;;;;;;;14.51;57.90;102351.91;1017415;29;678;-62
2022/01/29 00:55:55;;;;;;;;;;;;;;;14.49;57.51;102349.28;1017485;29;774;-62
2022/01/29 00:56:46;;;;;;;;;;;;;;;14.49;58.13;102353.78;1017438;29;693;-63
2022/01/29 00:57:39;;;;;;;;;;;;;;;14.50;57.62;102347.47;1017547;29;934;-63
2022/01/29 00:58:29;;;;;;;;;;;;;;;14.50;58.40;102351.03;1017543;29;1255;-63
2022/01/29 00:59:19;;;;;;;;;;;;;;;14.49;58.09;102353.78;1021410;29;1915;-62
2022/01/29 01:00:10;;;;;;;;;;;;;;;14.48;58.34;102349.38;1021482;29;639;-63
2022/01/29 01:01:00;;;;;;;;;;;;;;;14.47;58.56;102350.34;1017956;29;777;-63
2022/01/29 01:01:51;;;;;;;;;;;;;;;14.47;58.26;102344.97;1021151;29;874;-62
2022/01/29 01:02:41;;;;;;;;;;;;;;;14.47;57.75;102347.66;1022281;28;669;-63
2022/01/29 01:03:31;;;;;;;;;;;;;;;14.47;58.35;102345.84;1016795;29;1461;-62
2022/01/29 01:04:22;;;;;;;;;;;;;;;14.46;58.20;102348.59;1017151;29;704;-62
2022/01/29 01:05:12;;;;;;;;;;;;;;;14.46;58.44;102351.28;1017013;29;774;-62
2022/01/29 01:06:03;;;;;;;;;;;;;;;14.47;57.80;102353.03;1017051;29;724;-62
2022/01/29 01:06:53;;;;;;;;;;;;;;;14.47;58.46;102351.19;1017132;29;689;-62
2022/01/29 01:07:43;;;;;;;;;;;;;;;14.49;58.15;102357.34;1017042;29;694;-62
2022/01/29 01:08:34;;;;;;;;;;;;;;;14.48;57.92;102350.25;1017149;29;739;-62
2022/01/29 01:09:24;;;;;;;;;;;;;;;14.47;58.21;102350.34;1016967;29;790;-62
2022/01/29 01:10:15;;;;;;;;;;;;;;;14.47;58.30;102342.28;1017095;29;718;-62
2022/01/29 01:11:05;;;;;;;;;;;;;;;14.47;58.17;102344.97;1017621;29;630;-62
2022/01/29 01:11:56;;;;;;;;;;;;;;;14.47;58.38;102339.59;1018861;29;700;-62
2022/01/29 01:12:46;;;;;;;;;;;;;;;14.46;58.71;102338.75;1018842;29;678;-62
2022/01/29 01:13:36;;;;;;;;;;;;;;;14.47;58.62;102336.91;1018960;29;654;-62
2022/01/29 01:14:27;;;;;;;;;;;;;;;14.47;57.96;102332.44;1018807;29;1731;-62
2022/01/29 01:15:17;;;;;;;;;;;;;;;14.46;58.79;102327.16;1018939;29;611;-62
2022/01/29 01:16:08;;;;;;;;;;;;;;;14.46;58.27;102327.16;1017594;29;639;-62
2022/01/29 01:16:58;;;;;;;;;;;;;;;14.47;58.24;102328.88;1017750;29;706;-62
2022/01/29 01:17:48;;;;;;;;;;;;;;;14.47;58.41;102324.38;1017854;29;921;-61
2022/01/29 01:18:39;;;;;;;;;;;;;;;14.48;58.11;102325.25;1017738;29;1048;-62
2022/01/29 01:19:29;;;;;;;;;;;;;;;14.47;58.67;102318.16;1017732;29;1883;-62
2022/01/29 01:20:20;;;;;;;;;;;;;;;14.48;58.35;102319.88;1017789;29;639;-62
2022/01/29 01:21:10;;;;;;;;;;;;;;;14.47;58.81;102318.16;1018358;29;665;-61
2022/01/29 01:22:00;;;;;;;;;;;;;;;14.47;58.73;102323.50;1017633;29;701;-61
2022/01/29 01:22:51;;;;;;;;;;;;;;;14.45;58.51;102315.56;1017689;29;879;-62
2022/01/29 01:23:41;;;;;;;;;;;;;;;14.44;58.34;102305.78;1017760;29;749;-62
2022/01/29 01:24:32;;;;;;;;;;;;;;;14.46;58.40;102321.78;1017795;29;765;-62
2022/01/29 01:25:22;;;;;;;;;;;;;;;14.46;58.72;102309.22;1017848;29;739;-62
2022/01/29 01:26:12;;;;;;;;;;;;;;;14.45;58.75;102310.19;1019876;29;1690;-62
2022/01/29 01:27:03;;;;;;;;;;;;;;;14.44;58.71;102319.19;1022180;29;965;-62
2022/01/29 01:27:55;;;;;;;;;;;;;;;14.45;59.01;102314.69;1022760;29;717;-61
2022/01/29 01:28:45;;;;;;;;;;;;;;;14.44;58.60;102315.63;1022113;29;751;-62
2022/01/29 01:29:36;;;;;;;;;;;;;;;14.44;58.84;102313.81;1022228;29;638;-62
2022/01/29 01:30:26;;;;;;;;;;;;;;;14.42;58.39;102299.63;1022228;29;657;-62
2022/01/29 01:31:17;;;;;;;;;;;;;;;14.43;59.15;102313.91;1018759;29;909;-63
2022/01/29 01:32:11;;;;;;;;;;;;;;;14.43;58.66;102305.84;1019459;29;2155;-62
2022/01/29 01:33:02;;;;;;;;;;;;;;;14.41;58.25;102303.25;1021622;29;776;-60
2022/01/29 01:33:52;;;;;;;;;;;;;;;14.41;58.90;102302.41;1021659;29;670;-60
2022/01/29 01:34:48;;;;;;;;;;;;;;;14.43;58.45;102304.03;1021684;29;686;-60
2022/01/29 01:35:44;;;;;;;;;;;;;;;14.44;58.59;102312.94;1022207;29;785;-60
2022/01/29 01:36:42;;;;;;;;;;;;;;;14.44;58.99;102315.63;1021653;29;689;-60
2022/01/29 01:37:43;;;;;;;;;;;;;;;14.42;58.50;102304.13;1021923;29;710;-60
2022/01/29 01:39:34;;;;;;;;;;;;;;;14.40;58.76;102309.56;1022001;29;1946;-60
2022/01/29 01:40:26;;;;;;;;;;;;;;;14.41;58.42;102302.41;1021579;29;742;-59
2022/01/29 01:41:22;;;;;;;;;;;;;;;14.42;59.05;102304.13;1022179;29;854;-61
2022/01/29 01:42:13;;;;;;;;;;;;;;;14.40;59.25;102309.56;1022220;29;707;-61
2022/01/29 01:43:03;;;;;;;;;;;;;;;14.41;59.18;102310.44;1022081;29;681;-61
2022/01/29 01:43:53;;;;;;;;;;;;;;;14.39;58.64;102304.25;1021990;29;755;-59
2022/01/29 01:44:46;;;;;;;;;;;;;;;14.39;58.95;102306.94;1022230;29;768;-60
2022/01/29 01:45:36;;;;;;;;;;;;;;;14.39;59.08;102309.63;1022147;29;713;-60
2022/01/29 01:46:28;;;;;;;;;;;;;;;14.39;58.55;102304.25;1022169;29;768;-60
2022/01/29 01:47:19;;;;;;;;;;;;;;;14.36;58.55;102302.63;1022044;29;657;-60
2022/01/29 01:48:09;;;;;;;;;;;;;;;14.36;58.54;102307.97;1022076;29;933;-62
2022/01/29 01:49:12;;;;;;;;;;;;;;;14.37;59.35;102300.81;1022066;29;694;-66
2022/01/29 01:50:02;;;;;;;;;;;;;;;14.36;58.94;102302.63;1020649;29;690;-65
2022/01/29 01:50:53;;;;;;;;;;;;;;;14.37;58.49;102299.00;1020865;29;615;-65
2022/01/29 01:51:43;;;;;;;;;;;;;;;14.37;59.31;102303.47;1020958;29;709;-65
2022/01/29 07:38:33;;;;;;;;;;;;;;;14.71;62.28;101972.38;624878;23;2944;-70
2022/01/29 07:39:24;;;;;;;;;;;;;;;14.69;62.23;101963.59;1016906;29;1225;-68
2022/01/29 07:40:14;;;;;;;;;;;;;;;14.70;62.91;101968.81;1013837;29;794;-68
2022/01/29 07:41:05;;;;;;;;;;;;;;;14.70;62.42;101966.16;1013844;29;860;-67
2022/01/29 07:43:16;;;;;;;;;;;;;;;14.72;62.34;101972.28;964409;23;3155;-66
2022/01/29 07:44:06;;;;;;;;;;;;;;;14.74;63.14;101972.19;1017583;29;1362;-67
2022/01/29 07:44:57;;;;;;;;;;;;;;;14.76;63.01;101960.41;1017006;29;1473;-66
2022/01/29 07:45:47;;;;;;;;;;;;;;;14.75;62.33;101969.41;1013831;29;691;-68
2022/01/29 07:46:37;;;;;;;;;;;;;;;14.76;62.36;101959.53;1013384;29;961;-67
2022/01/29 07:47:28;;;;;;;;;;;;;;;14.77;62.86;101956.75;1014997;29;1127;-67
2022/01/29 07:48:18;;;;;;;;;;;;;;;14.78;62.61;101958.47;1017326;29;618;-67
2022/01/29 07:49:09;;;;;;;;;;;;;;;14.78;61.97;101963.84;1017301;29;714;-66
2022/01/29 07:49:59;;;;;;;;;;;;;;;14.80;62.28;101969.97;1017152;29;750;-66
2022/01/29 07:50:50;;;;;;;;;;;;;;;14.81;62.83;101962.78;1017228;29;875;-66
2022/01/29 07:51:40;;;;;;;;;;;;;;;14.79;62.61;101960.19;1015727;29;1580;-66
2022/01/29 07:52:32;;;;;;;;;;;;;;;14.78;62.91;101955.78;1017252;29;618;-66
2022/01/29 07:53:22;;;;;;;;;;;;;;;14.78;62.19;101954.94;1017110;29;931;-67
2022/01/29 07:54:12;;;;;;;;;;;;;;;14.77;62.44;101954.06;1017226;29;709;-67
2022/01/29 07:55:03;;;;;;;;;;;;;;;14.79;62.17;101965.56;1017051;29;646;-66
2022/01/29 07:55:53;;;;;;;;;;;;;;;14.78;62.63;101955.78;1017011;29;1611;-66
2022/01/29 07:56:44;;;;;;;;;;;;;;;14.77;62.62;101961.25;1016950;29;1367;-66
2022/01/29 07:57:34;;;;;;;;;;;;;;;14.76;62.31;101960.41;1016241;29;1677;-66
2022/01/29 07:58:24;;;;;;;;;;;;;;;14.74;62.75;101962.31;1016960;29;1431;-67
2022/01/29 07:59:15;;;;;;;;;;;;;;;14.72;62.35;101958.88;1015532;29;1437;-66
2022/01/29 08:00:05;;;;;;;;;;;;;;;14.73;62.27;101960.59;1016468;29;1303;-66
2022/01/29 08:00:56;;;;;;;;;;;;;;;14.73;62.24;101963.28;1016907;29;1447;-66
2022/01/29 08:01:46;;;;;;;;;;;;;;;14.72;62.75;101961.53;1016678;29;1579;-67
2022/01/29 08:02:37;;;;;;;;;;;;;;;14.71;62.71;101959.81;1017394;29;977;-67
2022/01/29 08:03:27;;;;;;;;;;;;;;;14.70;62.84;101955.41;1017070;29;795;-66
2022/01/29 08:04:19;;;;;;;;;;;;;;;14.68;62.78;101957.38;1017169;29;743;-66
2022/01/29 08:05:10;;;;;;;;;;;;;;;14.68;62.42;101952.00;1017052;29;851;-66
2022/01/29 08:06:01;;;;;;;;;;;;;;;14.68;62.44;101949.31;1017139;29;709;-67
2022/01/29 08:06:51;;;;;;;;;;;;;;;14.68;62.07;101941.25;1016963;29;705;-67
2022/01/29 08:07:42;;;;;;;;;;;;;;;14.69;62.81;101942.13;1016972;29;1613;-66
2022/01/29 08:08:32;;;;;;;;;;;;;;;14.68;62.05;101946.63;1016990;29;1692;-67
2022/01/29 08:09:22;;;;;;;;;;;;;;;14.69;62.23;101937.59;1013398;29;986;-67
2022/01/29 08:10:13;;;;;;;;;;;;;;;14.70;62.68;101936.63;1012318;29;1685;-66
2022/01/29 08:11:03;;;;;;;;;;;;;;;14.71;62.71;101941.03;1015856;29;1583;-66
2022/01/29 08:11:54;;;;;;;;;;;;;;;14.72;62.10;101939.22;1017050;29;1676;-67
2022/01/29 08:12:44;;;;;;;;;;;;;;;14.71;62.54;101938.34;1015493;29;1624;-66
2022/01/29 08:13:34;;;;;;;;;;;;;;;14.72;62.24;101937.41;1016084;29;1711;-66
2022/01/29 08:14:25;;;;;;;;;;;;;;;14.73;62.30;101939.13;1017177;29;1591;-66
2022/01/29 08:15:15;;;;;;;;;;;;;;;14.73;62.45;101933.75;1016771;29;1768;-67
2022/01/29 08:16:06;;;;;;;;;;;;;;;14.74;62.06;101930.13;1015838;29;1481;-67
2022/01/29 08:16:56;;;;;;;;;;;;;;;14.74;62.28;101930.13;1014476;29;1558;-68
2022/01/29 08:17:46;;;;;;;;;;;;;;;14.76;62.59;101930.00;1016897;29;1528;-67
2022/01/29 08:18:37;;;;;;;;;;;;;;;14.75;62.02;101931.84;1017652;29;1686;-67
2022/01/29 08:19:27;;;;;;;;;;;;;;;14.76;62.40;101919.28;1016655;29;1593;-66
2022/01/29 08:20:18;;;;;;;;;;;;;;;14.77;62.05;101924.56;1017143;29;1463;-66
2022/01/29 08:21:08;;;;;;;;;;;;;;;14.79;62.40;101930.69;1015978;29;1436;-66
2022/01/29 08:21:59;;;;;;;;;;;;;;;14.77;61.93;101927.25;1017080;29;690;-66
2022/01/29 08:22:49;;;;;;;;;;;;;;;14.75;62.06;101926.47;1017111;29;730;-66
2022/01/29 08:23:40;;;;;;;;;;;;;;;14.74;62.52;101918.50;1016791;29;1648;-67
2022/01/29 08:24:30;;;;;;;;;;;;;;;14.73;62.66;101925.69;1017064;29;729;-67
2022/01/29 08:25:21;;;;;;;;;;;;;;;14.74;62.65;101927.44;1017104;29;706;-67
2022/01/29 08:26:11;;;;;;;;;;;;;;;14.73;62.83;101924.84;1016774;29;780;-68
2022/01/29 08:27:01;;;;;;;;;;;;;;;14.71;63.00;101922.25;1016790;29;1756;-67
2022/01/29 08:27:52;;;;;;;;;;;;;;;14.72;62.97;101925.81;1015647;29;1488;-67
2022/01/29 08:28:42;;;;;;;;;;;;;;;14.71;62.61;101919.56;1013118;29;1656;-67
2022/01/29 08:29:33;;;;;;;;;;;;;;;14.70;62.80;101919.66;1012629;29;1621;-67
2022/01/29 08:30:23;;;;;;;;;;;;;;;14.69;62.88;101921.50;1016127;29;1428;-68
2022/01/29 08:31:14;;;;;;;;;;;;;;;14.68;62.93;101930.53;1013625;29;783;-67
2022/01/29 08:32:04;;;;;;;;;;;;;;;14.69;63.02;101915.28;1009991;29;857;-67
2022/01/29 08:32:54;;;;;;;;;;;;;;;14.68;62.39;101913.56;1012062;29;1579;-67
2022/01/29 08:33:45;;;;;;;;;;;;;;;14.69;62.87;101923.34;1014403;29;1445;-67
2022/01/29 08:34:35;;;;;;;;;;;;;;;14.67;62.37;101918.06;1016246;29;1615;-67
2022/01/29 08:35:28;;;;;;;;;;;;;;;14.67;62.67;101918.06;1016475;29;1663;-67
2022/01/29 08:36:19;;;;;;;;;;;;;;;14.66;62.80;101918.16;1016415;29;1681;-67
2022/01/29 08:37:09;;;;;;;;;;;;;;;14.67;62.65;101912.72;1015952;29;1444;-67
2022/01/29 08:37:59;;;;;;;;;;;;;;;14.67;62.79;101918.06;1016848;29;1464;-67
2022/01/29 08:38:50;;;;;;;;;;;;;;;14.68;62.71;101903.69;1016605;29;1448;-67
2022/01/29 08:39:41;;;;;;;;;;;;;;;14.67;62.21;101907.34;1016850;29;1891;-67
2022/01/29 08:40:33;;;;;;;;;;;;;;;14.68;62.54;101909.06;1016378;29;1371;-68
2022/01/29 08:41:24;;;;;;;;;;;;;;;14.67;62.38;101907.34;1017041;29;1434;-67
2022/01/29 08:42:15;;;;;;;;;;;;;;;14.66;62.76;101911.00;1016672;29;1486;-67
2022/01/29 08:43:06;;;;;;;;;;;;;;;14.67;62.24;101917.22;1014913;29;1543;-66
2022/01/29 08:43:56;;;;;;;;;;;;;;;14.67;62.56;101906.47;1013428;29;1655;-67
2022/01/29 08:44:46;;;;;;;;;;;;;;;14.68;62.64;101909.06;1008056;29;1457;-66
2022/01/29 08:45:37;;;;;;;;;;;;;;;14.67;62.87;101917.22;1008889;29;1607;-67
2022/01/29 08:46:27;;;;;;;;;;;;;;;14.65;62.70;101906.56;1011502;29;1487;-67
2022/01/29 08:47:18;;;;;;;;;;;;;;;14.67;62.51;101910.03;1013468;29;1586;-67
2022/01/29 08:48:08;;;;;;;;;;;;;;;14.69;62.82;101902.72;1011871;29;1452;-67
2022/01/29 08:48:59;;;;;;;;;;;;;;;14.69;62.33;101909.94;1010204;29;940;-67
2022/01/29 08:49:52;;;;;;;;;;;;;;;14.69;62.96;101905.41;1009787;29;750;-67
2022/01/29 08:50:42;;;;;;;;;;;;;;;14.68;63.24;101906.38;1010035;29;820;-68
2022/01/29 08:51:33;;;;;;;;;;;;;;;14.71;64.32;101900.78;1012388;29;1224;-67
2022/01/29 08:52:23;;;;;;;;;;;;;;;14.75;66.48;101904.16;1013759;29;687;-67
2022/01/29 08:53:14;;;;;;;;;;;;;;;14.77;68.24;101908.44;1014120;29;744;-67
2022/01/29 08:54:04;;;;;;;;;;;;;;;14.80;68.27;101910.94;1014245;29;621;-67
2022/01/29 08:54:55;;;;;;;;;;;;;;;14.84;69.48;101890.13;1014111;29;738;-67
2022/01/29 08:55:45;;;;;;;;;;;;;;;14.86;71.35;101902.50;1013628;29;833;-67
2022/01/29 08:56:35;;;;;;;;;;;;;;;14.90;71.94;101897.75;1014167;29;779;-67
2022/01/29 08:57:26;;;;;;;;;;;;;;;14.90;72.35;101887.88;1013824;29;2058;-67
2022/01/29 08:58:16;;;;;;;;;;;;;;;14.92;72.66;101896.69;1013447;29;660;-67
2022/01/29 08:59:07;;;;;;;;;;;;;;;14.96;73.35;101889.31;1013088;29;870;-66
2022/01/29 08:59:57;;;;;;;;;;;;;;;14.98;72.34;101889.22;1013581;29;1962;-65
2022/01/29 09:00:48;;;;;;;;;;;;;;;14.98;72.15;101883.84;1013131;29;701;-66
2022/01/29 09:01:38;;;;;;;;;;;;;;;14.97;71.74;101892.84;1012556;29;2130;-67
2022/01/29 09:02:28;;;;;;;;;;;;;;;14.96;71.33;101885.75;1017607;29;619;-65
2022/01/29 09:03:19;;;;;;;;;;;;;;;14.94;71.37;101891.22;1017515;29;875;-66
2022/01/29 09:04:10;;;;;;;;;;;;;;;14.91;70.19;101881.56;1013884;29;731;-66
2022/01/29 09:05:00;;;;;;;;;;;;;;;14.90;70.43;101879.84;1013953;29;791;-67
2022/01/29 09:05:50;;;;;;;;;;;;;;;14.89;70.47;101880.78;1017976;29;791;-66
2022/01/29 09:06:41;;;;;;;;;;;;;;;14.86;69.75;101875.66;1017621;29;646;-65
2022/01/29 09:07:31;;;;;;;;;;;;;;;14.86;69.47;101874.78;1017490;29;917;-65
2022/01/29 09:08:22;;;;;;;;;;;;;;;14.84;69.13;101871.34;1017615;29;658;-65
2022/01/29 09:09:12;;;;;;;;;;;;;;;14.85;68.86;101875.75;1017585;29;788;-65
2022/01/29 09:10:03;;;;;;;;;;;;;;;14.84;68.94;101877.59;1017566;29;668;-65
2022/01/29 09:10:57;;;;;;;;;;;;;;;14.85;68.23;101873.06;1017512;29;849;-65
2022/01/29 09:11:48;;;;;;;;;;;;;;;14.84;67.98;101874.91;1017471;29;904;-65
2022/01/29 09:12:38;;;;;;;;;;;;;;;14.83;68.06;101872.31;1017418;29;1012;-65
2022/01/29 09:13:29;;;;;;;;;;;;;;;14.83;68.03;101869.63;1017508;29;709;-65
2022/01/29 09:14:19;;;;;;;;;;;;;;;14.82;67.73;101875.97;1017547;29;655;-65
2022/01/29 09:15:10;;;;;;;;;;;;;;;14.79;67.81;101868.97;1017442;29;654;-65
2022/01/29 09:16:00;;;;;;;;;;;;;;;14.77;67.75;101870.88;1017515;29;873;-65
2022/01/29 09:16:50;;;;;;;;;;;;;;;14.77;67.16;101878.94;1017437;29;662;-65
2022/01/29 09:17:41;;;;;;;;;;;;;;;14.76;67.53;101879.91;1017511;29;716;-65
2022/01/29 09:18:31;;;;;;;;;;;;;;;14.74;66.85;101887.19;1017514;29;785;-65
2022/01/29 09:19:22;;;;;;;;;;;;;;;14.73;67.08;101877.41;1017572;29;646;-65
2022/01/29 09:20:12;;;;;;;;;;;;;;;14.72;66.67;101878.38;1017482;29;735;-65
2022/01/29 09:21:03;;;;;;;;;;;;;;;14.72;66.72;101873.00;1017607;29;690;-66
2022/01/29 09:21:53;;;;;;;;;;;;;;;14.73;66.07;101863.13;1013856;29;790;-65
2022/01/29 09:22:43;;;;;;;;;;;;;;;14.74;66.06;101864.84;1013921;29;697;-65
2022/01/29 09:23:34;;;;;;;;;;;;;;;14.73;66.55;101868.50;1017572;29;708;-65
2022/01/29 09:24:24;;;;;;;;;;;;;;;14.74;66.31;101859.50;1017430;29;835;-66
2022/01/29 09:25:15;;;;;;;;;;;;;;;14.73;66.13;101864.00;1017468;29;666;-66
2022/01/29 09:26:05;;;;;;;;;;;;;;;14.74;66.14;101870.22;1017456;29;843;-66
2022/01/29 09:26:55;;;;;;;;;;;;;;;14.73;65.84;101866.69;1017451;29;638;-65
2022/01/29 09:27:46;;;;;;;;;;;;;;;14.73;66.20;101864.00;1014262;29;1887;-65
2022/01/29 09:28:36;;;;;;;;;;;;;;;14.73;65.54;101871.19;1010871;29;967;-65
2022/01/29 09:29:27;;;;;;;;;;;;;;;14.74;65.53;101876.44;1009798;29;643;-65
2022/01/29 09:30:17;;;;;;;;;;;;;;;14.72;65.75;101867.63;1010128;29;839;-66
2022/01/29 09:31:08;;;;;;;;;;;;;;;14.74;65.40;101865.72;1010285;29;771;-65
2022/01/29 09:31:58;;;;;;;;;;;;;;;14.74;65.30;101864.84;1011092;29;721;-65
2022/01/29 09:32:48;;;;;;;;;;;;;;;14.73;65.83;101866.69;1010997;29;923;-65
2022/01/29 09:33:39;;;;;;;;;;;;;;;14.74;65.36;101871.09;1011057;29;654;-65
2022/01/29 09:34:29;;;;;;;;;;;;;;;14.75;65.32;101863.91;1010497;29;836;-65
2022/01/29 09:35:20;;;;;;;;;;;;;;;14.76;65.31;101858.44;1011058;29;638;-66
2022/01/29 09:36:10;;;;;;;;;;;;;;;14.75;65.36;101862.06;1011029;29;708;-66
2022/01/29 09:37:00;;;;;;;;;;;;;;;14.77;65.05;101865.53;1010986;29;1215;-66
2022/01/29 09:37:51;;;;;;;;;;;;;;;14.77;65.08;101856.59;1013082;29;1965;-66
2022/01/29 09:38:41;;;;;;;;;;;;;;;14.78;64.75;101872.59;1013370;29;1572;-65
2022/01/29 09:39:32;;;;;;;;;;;;;;;14.78;65.07;101861.00;1014254;29;1890;-65
2022/01/29 09:40:22;;;;;;;;;;;;;;;14.78;64.84;101861.00;1014357;29;652;-65
2022/01/29 09:41:13;;;;;;;;;;;;;;;14.77;64.90;101854.78;1014318;29;874;-65
2022/01/29 09:42:03;;;;;;;;;;;;;;;14.77;64.74;101856.59;1014358;29;722;-65
2022/01/29 09:42:54;;;;;;;;;;;;;;;14.76;64.57;101862.94;1014092;29;789;-66
2022/01/29 09:43:46;;;;;;;;;;;;;;;14.76;64.45;101855.75;1014380;29;722;-65
2022/01/29 09:44:36;;;;;;;;;;;;;;;14.77;64.26;101862.84;1014315;29;686;-65
2022/01/29 09:45:27;;;;;;;;;;;;;;;14.77;64.35;101848.56;1014879;29;721;-65
2022/01/29 09:46:17;;;;;;;;;;;;;;;14.77;64.46;101857.47;1014336;29;737;-65
2022/01/29 09:47:07;;;;;;;;;;;;;;;14.79;64.18;101865.41;1014276;29;742;-65
2022/01/29 09:48:02;;;;;;;;;;;;;;;14.79;63.96;101854.69;1014805;29;654;-65
2022/01/29 09:48:52;;;;;;;;;;;;;;;14.77;64.37;101849.41;1014949;29;784;-65
2022/01/29 09:49:42;;;;;;;;;;;;;;;14.76;63.73;101847.69;1014836;29;641;-64
2022/01/29 09:50:33;;;;;;;;;;;;;;;14.73;64.42;101847.91;1014807;29;686;-65
2022/01/29 09:51:23;;;;;;;;;;;;;;;14.72;63.84;101835.44;1017211;29;1558;-65
2022/01/29 09:52:14;;;;;;;;;;;;;;;14.72;63.92;101838.13;1017235;29;782;-65
2022/01/29 09:53:04;;;;;;;;;;;;;;;14.72;63.92;101830.06;1017284;29;773;-64
2022/01/29 09:53:54;;;;;;;;;;;;;;;14.72;64.28;101830.06;1017071;29;646;-64
2022/01/29 09:54:45;;;;;;;;;;;;;;;14.73;63.77;101829.09;1017328;29;670;-64
2022/01/29 09:55:35;;;;;;;;;;;;;;;14.74;63.91;101830.84;1016973;29;850;-65
2022/01/29 09:56:28;;;;;;;;;;;;;;;14.73;63.46;101829.09;1017184;29;824;-65
2022/01/29 09:57:18;;;;;;;;;;;;;;;14.74;63.78;101825.47;1016103;29;1587;-66
2022/01/29 09:58:08;;;;;;;;;;;;;;;14.74;64.09;101816.56;1014207;29;717;-65
2022/01/29 09:58:59;;;;;;;;;;;;;;;14.74;64.05;101812.06;1014162;29;1563;-65
2022/01/29 09:59:50;;;;;;;;;;;;;;;14.74;63.97;101811.19;1013129;29;1895;-65
2022/01/29 10:00:40;;;;;;;;;;;;;;;14.75;63.25;101815.59;1014047;29;945;-67
2022/01/29 10:01:31;;;;;;;;;;;;;;;14.75;63.81;101820.97;1014863;29;662;-65
2022/01/29 10:02:22;;;;;;;;;;;;;;;14.73;63.30;101804.97;1014807;29;705;-65
2022/01/29 10:03:14;;;;;;;;;;;;;;;14.73;63.27;101807.66;1014798;29;838;-65
2022/01/29 10:04:04;;;;;;;;;;;;;;;14.73;63.79;101809.47;1014853;29;844;-66
2022/01/29 10:04:55;;;;;;;;;;;;;;;14.73;63.43;101807.66;1014647;29;693;-66
2022/01/29 10:05:45;;;;;;;;;;;;;;;14.73;63.04;101804.09;1014798;29;877;-66
2022/01/29 10:06:37;;;;;;;;;;;;;;;14.73;63.58;101794.22;1014805;29;662;-65
2022/01/29 10:07:28;;;;;;;;;;;;;;;14.74;63.40;101795.94;1014127;29;1785;-65
2022/01/29 10:08:19;;;;;;;;;;;;;;;14.75;62.96;101799.50;1014298;29;900;-65
2022/01/29 10:09:14;;;;;;;;;;;;;;;14.76;62.88;101803.91;1014764;29;680;-65
2022/01/29 10:10:05;;;;;;;;;;;;;;;14.76;63.17;101804.75;1014134;29;670;-65
2022/01/29 10:10:55;;;;;;;;;;;;;;;14.75;63.12;101808.41;1014707;29;658;-65
2022/01/29 10:11:45;;;;;;;;;;;;;;;14.77;62.95;101811.84;1014698;29;673;-65
2022/01/29 10:12:36;;;;;;;;;;;;;;;14.78;63.35;101812.72;1011177;29;2251;-66
2022/01/29 10:13:26;;;;;;;;;;;;;;;14.79;63.30;101820.66;1010911;29;766;-66
2022/01/29 10:14:17;;;;;;;;;;;;;;;14.78;63.42;101816.25;1010272;29;832;-65
2022/01/29 10:15:07;;;;;;;;;;;;;;;14.79;63.02;101815.28;1010798;29;904;-66
2022/01/29 10:15:57;;;;;;;;;;;;;;;14.80;62.64;101825.06;1010104;29;862;-66